Andrómeda ‚ÄĒ CTHK ‚ÄĒ position and weather

sailwx.info

Track history (hours):
 
Tides and Currents Weather Stations Pressure Air Temp Water Temp Dewpoint Dewpoint Depression Visibility Wind Speed Wind Dir Waves Ship Positions

Oceanographic research ship Andrómeda (Portugal)

Detailed information on ship capabilities available from University of Delaware's Ocean Information Center.

Last reported at 2020-Sep-23 18:40 UTC. Time now 2020-Oct-29 02:50 UTC.
Position N 38°40' W 009°09'.
Warning: this ship's position is 35 days out of date.

Length 32 m; draft 3 m.

Type: Dredging. MMSI: 263139000.

Date/timePositionNaut miles runAvg speedWind from/ knotsBaromVisibWave heightAir tempDewpointWater temp
2020-Sep-23 18:40N 38°40' W 009°09'25 6.9
2020-Sep-23 15:00N 38°58' W 009°32'1111.1
2020-Sep-23 14:01N 39°09' W 009°30'  
2020-Sep-15 23:04N 39°10' W 009°30'610.7
2020-Sep-15 22:29N 39°04' W 009°31'2110.8
2020-Sep-15 20:30N 38°43' W 009°34'44 6.7
2020-Sep-15 14:01N 38°16' W 008°51'2 4.7
2020-Sep-15 13:31N 38°18' W 008°50'2 1.1
2020-Sep-15 12:01N 38°16' W 008°49'3 1.0
2020-Sep-15 09:31N 38°15' W 008°52'3 1.5
2020-Sep-15 07:31N 38°15' W 008°48'16 7.9
2020-Sep-15 05:31N 38°21' W 009°07'22 8.8
2020-Sep-15 03:01N 38°41' W 009°16'6 5.8
2020-Sep-15 02:00N 38°40' W 009°09'  
Track history (hours):
 
Tides and Currents Weather Stations Pressure Air Temp Water Temp Dewpoint Dewpoint Depression Visibility Wind Speed Wind Dir Waves Ship Positions

Oceanographic research ship Andrómeda (Portugal)

Detailed information on ship capabilities available from University of Delaware's Ocean Information Center.

Last reported at 2020-Sep-23 18:40 UTC. Time now 2020-Oct-29 02:50 UTC.
Position N 38°40' W 009°09'.
Warning: this ship's position is 35 days out of date.

Length 32 m; draft 3 m.

Type: Dredging. MMSI: 263139000.

Date/timePositionNaut miles runAvg speedWind from/ knotsBaromVisibWave heightAir tempDewpointWater temp
2020-Sep-23 18:40N 38°40' W 009°09'25 6.9
2020-Sep-23 15:00N 38°58' W 009°32'1111.1
2020-Sep-23 14:01N 39°09' W 009°30'  
2020-Sep-15 23:04N 39°10' W 009°30'610.7
2020-Sep-15 22:29N 39°04' W 009°31'2110.8
2020-Sep-15 20:30N 38°43' W 009°34'44 6.7
2020-Sep-15 14:01N 38°16' W 008°51'2 4.7
2020-Sep-15 13:31N 38°18' W 008°50'2 1.1
2020-Sep-15 12:01N 38°16' W 008°49'3 1.0
2020-Sep-15 09:31N 38°15' W 008°52'3 1.5
2020-Sep-15 07:31N 38°15' W 008°48'16 7.9
2020-Sep-15 05:31N 38°21' W 009°07'22 8.8
2020-Sep-15 03:01N 38°41' W 009°16'6 5.8
2020-Sep-15 02:00N 38°40' W 009°09'  

Dump ship's entire track history